Time;durP1;ratioP1;P1;durP2;ratioP2;P2;SDS_P1;SDS_P2;PMS_P1;PMS_P2;Temp;Humidity;BMP_temperature;BMP_pressure;BME280_temperature;BME280_humidity;BME280_pressure;Samples;Min_cycle;Max_cycle;Signal;HPM_P1;HPM_P2
2023/01/08 05:22:43;;;;;;;6.05;4.93;;;;;;;6.42;100.00;99459.66;5109509;27;20357;-67
2023/01/08 05:25:08;;;;;;;9.55;5.18;;;;;;;6.45;100.00;99451.38;5109604;28;20039;-67
2023/01/08 05:27:34;;;;;;;12.48;6.00;;;;;;;6.48;100.00;99448.41;5089008;28;20032;-67
2023/01/08 05:29:59;;;;;;;13.23;6.78;;;;;;;6.51;100.00;99453.34;5089185;28;20127;-68
2023/01/08 05:32:24;;;;;;;13.15;6.35;;;;;;;6.55;100.00;99452.03;5089195;28;20042;-67
2023/01/08 05:34:50;;;;;;;10.55;6.20;;;;;;;6.62;100.00;99441.63;5089591;28;20044;-67
2023/01/08 05:37:15;;;;;;;11.20;6.40;;;;;;;6.57;100.00;99447.41;5088751;28;20028;-65
2023/01/08 05:39:40;;;;;;;10.38;5.70;;;;;;;6.54;100.00;99450.41;5088989;28;20040;-66
2023/01/08 05:42:06;;;;;;;10.25;5.93;;;;;;;6.57;100.00;99451.88;5088932;28;20082;-66
2023/01/08 05:44:31;;;;;;;12.55;6.32;;;;;;;6.58;100.00;99442.94;5088962;28;20046;-65
2023/01/08 05:46:56;;;;;;;14.20;5.75;;;;;;;6.57;100.00;99442.13;5088835;28;20403;-65
2023/01/08 05:49:22;;;;;;;13.60;6.03;;;;;;;6.59;100.00;99426.91;5088806;28;20044;-66
2023/01/08 05:51:48;;;;;;;12.60;5.15;;;;;;;6.53;100.00;99435.53;5088819;28;20036;-66
2023/01/08 05:54:14;;;;;;;11.88;6.22;;;;;;;6.56;100.00;99437.81;5088749;28;20054;-65
2023/01/08 05:56:40;;;;;;;12.25;5.32;;;;;;;6.58;100.00;99427.06;5088637;28;20059;-66
2023/01/08 05:59:05;;;;;;;7.72;4.13;;;;;;;6.65;100.00;99417.44;5088260;28;20040;-65
2023/01/08 06:01:31;;;;;;;9.95;4.35;;;;;;;6.77;100.00;99424.88;5088518;28;20123;-66
2023/01/08 06:03:57;;;;;;;13.60;4.90;;;;;;;6.81;100.00;99422.72;5088590;28;20115;-65
2023/01/08 06:06:24;;;;;;;10.73;4.38;;;;;;;6.85;100.00;99417.94;5088479;28;20060;-63
2023/01/08 06:08:49;;;;;;;13.00;5.55;;;;;;;6.87;100.00;99421.25;5088149;28;20083;-65
2023/01/08 06:11:14;;;;;;;13.85;5.30;;;;;;;6.89;100.00;99420.06;5088446;28;20508;-66
2023/01/08 06:13:42;;;;;;;9.40;3.95;;;;;;;6.90;100.00;99413.75;5088398;28;20029;-65
2023/01/08 06:16:08;;;;;;;8.35;4.95;;;;;;;6.91;100.00;99414.59;5088315;28;20032;-66
2023/01/08 06:18:34;;;;;;;12.98;5.45;;;;;;;6.91;100.00;99411.94;5087958;28;20040;-64
2023/01/08 06:21:01;;;;;;;10.18;5.05;;;;;;;6.93;100.00;99418.75;5088129;28;20040;-66
2023/01/08 06:23:27;;;;;;;9.63;4.50;;;;;;;6.91;100.00;99410.16;5088169;28;20102;-66
2023/01/08 06:25:54;;;;;;;11.57;5.55;;;;;;;6.95;100.00;99415.91;5088167;28;20072;-66
2023/01/08 06:28:19;;;;;;;10.70;4.82;;;;;;;6.93;100.00;99410.78;5087765;28;20032;-66
2023/01/08 06:30:45;;;;;;;11.20;4.93;;;;;;;6.95;100.00;99414.09;5088153;28;20039;-67
2023/01/08 06:33:10;;;;;;;7.50;4.38;;;;;;;7.00;100.00;99403.00;5079704;28;20032;-64
2023/01/08 06:35:35;;;;;;;8.18;4.63;;;;;;;7.03;100.00;99411.41;5074411;28;20504;-66
2023/01/08 06:38:01;;;;;;;11.40;5.18;;;;;;;7.00;100.00;99403.00;5074102;28;20048;-66
2023/01/08 06:40:26;;;;;;;14.27;5.80;;;;;;;7.01;100.00;99405.47;5074401;28;20036;-64
2023/01/08 06:42:52;;;;;;;13.23;5.15;;;;;;;7.03;100.00;99395.50;5074208;28;20055;-66
2023/01/08 06:45:17;;;;;;;8.68;4.95;;;;;;;7.03;100.00;99402.63;5074376;28;20119;-64
2023/01/08 06:47:42;;;;;;;14.52;5.18;;;;;;;7.03;100.00;99407.94;5072780;28;20048;-65
2023/01/08 06:50:08;;;;;;;12.00;5.47;;;;;;;7.01;100.00;99410.75;5074178;28;20048;-65
2023/01/08 06:52:34;;;;;;;10.70;5.55;;;;;;;7.04;100.00;99409.59;5074007;28;20032;-65
2023/01/08 06:54:59;;;;;;;8.50;5.03;;;;;;;7.05;100.00;99417.38;5074141;28;20495;-67
2023/01/08 06:57:25;;;;;;;11.02;5.68;;;;;;;7.05;100.00;99409.44;5073599;28;20044;-65
2023/01/08 06:59:50;;;;;;;11.70;6.22;;;;;;;7.07;100.00;99406.59;5073987;28;20052;-66
2023/01/08 07:02:17;;;;;;;10.60;5.05;;;;;;;7.09;100.00;99407.25;5073878;28;20508;-67
2023/01/08 07:04:43;;;;;;;8.80;5.03;;;;;;;7.10;100.00;99405.44;5073843;28;20032;-65
2023/01/08 07:07:12;;;;;;;10.48;4.60;;;;;;;7.11;100.00;99407.94;5073535;28;20131;-65
2023/01/08 07:09:37;;;;;;;10.52;5.50;;;;;;;7.13;100.00;99411.22;5073832;28;20425;-65
2023/01/08 07:12:02;;;;;;;13.18;5.18;;;;;;;7.13;100.00;99410.41;5073793;28;20082;-67
2023/01/08 07:14:28;;;;;;;13.90;5.50;;;;;;;7.13;100.00;99411.22;5073816;28;20037;-67
2023/01/08 07:16:53;;;;;;;12.05;5.03;;;;;;;7.16;100.00;99410.88;5073561;28;20040;-67
2023/01/08 07:19:19;;;;;;;10.10;5.60;;;;;;;7.15;100.00;99403.91;5073469;28;20041;-66
2023/01/08 07:21:44;;;;;;;8.98;4.63;;;;;;;7.19;100.00;99407.88;5073351;28;20048;-67
2023/01/08 07:24:09;;;;;;;9.65;4.97;;;;;;;7.17;100.00;99401.94;5073540;28;20044;-66
2023/01/08 07:26:35;;;;;;;11.48;5.25;;;;;;;7.18;100.00;99403.59;5073363;28;20055;-66
2023/01/08 07:29:01;;;;;;;14.63;5.95;;;;;;;7.21;100.00;99405.06;5073401;28;20463;-67
2023/01/08 07:31:26;;;;;;;7.70;5.07;;;;;;;7.16;100.00;99404.75;5073516;28;20029;-66
2023/01/08 07:33:51;;;;;;;14.70;6.25;;;;;;;7.19;100.00;99410.53;5073412;28;20193;-67
2023/01/08 07:36:21;;;;;;;9.70;5.82;;;;;;;7.27;100.00;99417.63;5073089;28;20175;-66
2023/01/08 07:38:47;;;;;;;12.30;4.72;;;;;;;7.25;100.00;99416.97;5073009;28;20117;-66
2023/01/08 07:41:13;;;;;;;7.95;4.82;;;;;;;7.25;100.00;99419.63;5073158;28;20504;-66
2023/01/08 07:43:38;;;;;;;11.45;4.65;;;;;;;7.24;100.00;99418.81;5071559;28;20036;-65
2023/01/08 07:46:04;;;;;;;18.52;5.35;;;;;;;7.27;100.00;99428.22;5072317;28;20615;-66
2023/01/08 07:48:29;;;;;;;17.10;6.10;;;;;;;7.26;100.00;99421.28;5071715;28;20067;-66
2023/01/08 07:51:02;;;;;;;9.02;4.72;;;;;;;7.24;100.00;99413.50;5072976;28;20424;-67
2023/01/08 07:53:28;;;;;;;13.35;5.53;;;;;;;7.26;100.00;99419.44;5071687;28;20124;-67
2023/01/08 07:55:58;;;;;;;20.20;6.75;;;;;;;7.30;100.00;99412.81;5072889;28;20128;-67
2023/01/08 07:58:24;;;;;;;12.82;5.90;;;;;;;7.28;100.00;99413.97;5072597;28;20044;-66
2023/01/08 08:00:49;;;;;;;20.15;6.90;;;;;;;7.31;100.00;99408.34;5072720;28;20036;-68
2023/01/08 08:03:15;;;;;;;10.23;5.13;;;;;;;7.31;100.00;99411.00;5071689;28;20044;-57
2023/01/08 08:05:40;;;;;;;17.35;6.90;;;;;;;7.35;100.00;99402.50;5072603;28;20398;-55
2023/01/08 08:08:10;;;;;;;20.85;5.85;;;;;;;7.34;100.00;99406.16;5072410;28;20059;-53
2023/01/08 08:10:35;;;;;;;13.70;6.05;;;;;;;7.35;100.00;99406.97;5072721;28;20041;-66
2023/01/08 08:13:01;;;;;;;7.03;4.60;;;;;;;7.39;100.00;99404.81;5071295;28;20554;-67
2023/01/08 08:15:26;;;;;;;10.75;4.30;;;;;;;7.41;100.00;99400.16;5072493;28;20037;-67
2023/01/08 08:17:51;;;;;;;14.57;4.97;;;;;;;7.45;100.00;99401.47;5071135;28;20032;-65
2023/01/08 08:20:17;;;;;;;15.10;5.20;;;;;;;7.46;100.00;99397.84;5072418;28;20474;-68
2023/01/08 08:22:42;;;;;;;11.55;4.97;;;;;;;7.50;100.00;99405.28;5072304;28;20074;-66
2023/01/08 08:25:09;;;;;;;12.60;5.72;;;;;;;7.49;100.00;99405.41;5072396;28;20072;-66
2023/01/08 08:27:34;;;;;;;10.02;4.68;;;;;;;7.52;100.00;99411.22;5071971;28;20051;-64
2023/01/08 08:29:59;;;;;;;12.68;4.57;;;;;;;7.51;100.00;99420.16;5072126;28;20036;-65
2023/01/08 08:32:25;;;;;;;13.18;4.68;;;;;;;7.51;100.00;99419.34;5071015;28;20476;-65
2023/01/08 08:34:50;;;;;;;7.38;3.88;;;;;;;7.57;100.00;99423.94;5087740;28;20036;-64
2023/01/08 08:37:15;;;;;;;7.22;4.13;;;;;;;7.60;100.00;99418.28;5071597;28;20063;-65
2023/01/08 08:39:41;;;;;;;10.18;3.92;;;;;;;7.64;100.00;99416.13;5072057;28;20040;-68
2023/01/08 08:42:06;;;;;;;7.65;4.15;;;;;;;7.68;100.00;99412.94;5072105;28;20076;-65
2023/01/08 08:44:32;;;;;;;6.72;3.65;;;;;;;7.75;100.00;99415.72;5072036;28;20085;-67
2023/01/08 08:46:57;;;;;;;11.18;4.03;;;;;;;7.76;100.00;99409.41;5071805;28;20508;-65
2023/01/08 08:49:23;;;;;;;11.00;4.40;;;;;;;7.79;100.00;99407.25;5071669;28;20040;-64
2023/01/08 08:51:48;;;;;;;9.63;3.88;;;;;;;7.83;100.00;99408.56;5072012;28;20040;-65
2023/01/08 08:54:13;;;;;;;6.68;3.67;;;;;;;7.87;100.00;99404.53;5072034;28;20240;-67
2023/01/08 08:56:39;;;;;;;8.57;3.67;;;;;;;7.91;100.00;99409.50;5071655;28;20055;-65
2023/01/08 08:59:04;;;;;;;8.13;3.13;;;;;;;7.94;100.00;99412.59;5071503;28;20036;-66
2023/01/08 09:01:29;;;;;;;5.00;2.90;;;;;;;7.97;100.00;99416.75;5071819;28;20397;-66
2023/01/08 09:03:55;;;;;;;7.05;3.28;;;;;;;8.00;100.00;99419.84;5071806;28;20127;-66
2023/01/08 09:06:20;;;;;;;7.00;3.70;;;;;;;8.01;100.00;99424.16;5071734;28;20479;-66
2023/01/08 09:08:46;;;;;;;9.40;4.70;;;;;;;8.02;100.00;99422.31;5071731;28;20086;-65
2023/01/08 09:11:11;;;;;;;13.68;5.90;;;;;;;8.05;100.00;99427.28;5071871;28;20438;-65
2023/01/08 09:13:37;;;;;;;12.43;5.07;;;;;;;8.04;100.00;99420.34;5071610;28;20574;-66
2023/01/08 09:16:03;;;;;;;7.07;3.35;;;;;;;8.07;100.00;99420.78;5071935;28;20487;-66
2023/01/08 09:18:28;;;;;;;6.57;4.00;;;;;;;8.12;100.00;99420.28;5071278;28;20090;-66
2023/01/08 09:20:54;;;;;;;7.70;2.85;;;;;;;8.10;100.00;99423.13;5083404;28;20463;-66
2023/01/08 09:23:19;;;;;;;11.05;4.22;;;;;;;8.17;100.00;99425.88;5091657;28;20040;-67
2023/01/08 09:25:45;;;;;;;6.70;3.15;;;;;;;8.14;100.00;99428.88;5091688;28;20051;-67
2023/01/08 09:28:11;;;;;;;5.32;3.38;;;;;;;8.23;100.00;99425.16;5090732;28;20032;-65
2023/01/08 09:30:38;;;;;;;5.28;2.92;;;;;;;8.28;100.00;99432.56;5091723;28;20546;-67
2023/01/08 09:33:04;;;;;;;5.93;3.17;;;;;;;8.32;100.00;99432.06;5091712;28;20397;-66
2023/01/08 09:35:31;;;;;;;7.35;3.28;;;;;;;8.37;100.00;99435.03;5091748;28;20408;-66
2023/01/08 09:37:57;;;;;;;6.07;3.33;;;;;;;8.35;100.00;99425.59;5090597;28;20039;-67
2023/01/08 09:40:49;;;;;;;8.68;3.10;;;;;;;8.46;100.00;99432.31;5091688;28;20109;-67
2023/01/08 09:43:18;;;;;;;5.68;3.45;;;;;;;8.53;100.00;99436.72;5091759;28;20404;-66
2023/01/08 09:45:48;;;;;;;8.23;3.65;;;;;;;8.56;100.00;99430.25;5091549;28;20042;-65
2023/01/08 09:48:17;;;;;;;6.68;2.88;;;;;;;8.52;100.00;99434.25;5091228;28;20040;-66
2023/01/08 09:50:43;;;;;;;6.00;3.00;;;;;;;8.56;100.00;99427.59;5091603;28;20043;-66
2023/01/08 09:53:13;;;;;;;7.47;3.60;;;;;;;8.59;100.00;99424.56;5091613;28;20115;-66
2023/01/08 09:55:39;;;;;;;5.30;3.05;;;;;;;8.60;100.00;99416.41;5091630;28;20036;-66
2023/01/08 09:58:30;;;;;;;6.53;2.75;;;;;;;8.63;100.00;99425.84;5091329;28;20043;-66
2023/01/08 10:00:56;;;;;;;7.75;3.30;;;;;;;8.65;100.00;99424.66;5091522;28;20070;-67
2023/01/08 10:03:37;;;;;;;7.22;3.50;;;;;;;8.70;100.00;99424.13;5091573;28;20044;-67
2023/01/08 10:06:10;;;;;;;12.13;5.20;;;;;;;8.74;100.00;99411.28;5091440;28;20404;-66
2023/01/08 10:08:36;;;;;;;10.63;5.18;;;;;;;8.75;100.00;99408.47;5093443;28;20035;-66
2023/01/08 10:11:03;;;;;;;6.78;3.45;;;;;;;8.78;100.00;99401.97;5095355;28;20024;-66
2023/01/08 10:13:29;;;;;;;4.82;2.78;;;;;;;8.82;100.00;99408.56;5095250;28;20040;-67
2023/01/08 10:15:54;;;;;;;4.45;2.88;;;;;;;8.87;100.00;99403.56;5095099;28;20078;-67
2023/01/08 10:18:24;;;;;;;4.15;2.42;;;;;;;8.93;100.00;99401.00;5094884;28;20408;-67
2023/01/08 10:20:49;;;;;;;5.75;2.85;;;;;;;8.95;100.00;99393.66;5095067;28;20076;-66
2023/01/08 10:23:18;;;;;;;8.40;2.67;;;;;;;9.09;100.00;99388.50;5094990;28;20043;-67
2023/01/08 10:25:52;;;;;;;3.15;1.83;;;;;;;9.13;100.00;99384.50;5094922;28;20481;-67
2023/01/08 10:28:23;;;;;;;4.88;1.75;;;;;;;9.21;100.00;99392.34;5093270;28;20047;-66
2023/01/08 10:30:51;;;;;;;4.13;1.85;;;;;;;9.30;100.00;99379.78;5094881;28;20039;-66
2023/01/08 10:33:22;;;;;;;4.15;1.60;;;;;;;9.31;100.00;99374.28;5094780;28;20047;-66
2023/01/08 10:35:54;;;;;;;3.53;1.85;;;;;;;9.32;100.00;99378.56;5094730;28;20039;-65
2023/01/08 10:38:32;;;;;;;3.50;1.50;;;;;;;9.46;100.00;99369.78;5094370;28;20074;-66
2023/01/08 10:41:00;;;;;;;1.98;1.20;;;;;;;9.50;100.00;99365.72;5093439;28;20481;-65
2023/01/08 10:43:30;;;;;;;3.75;1.58;;;;;;;9.59;100.00;99365.63;5094736;28;20034;-65
2023/01/08 10:46:01;;;;;;;4.65;1.75;;;;;;;9.64;100.00;99353.38;5093200;28;20075;-66
2023/01/08 10:48:39;;;;;;;2.83;1.25;;;;;;;9.71;100.00;99346.28;5094275;28;20093;-67
2023/01/08 10:51:26;;;;;;;3.35;1.83;;;;;;;9.79;100.00;99350.69;5094473;28;20028;-67
2023/01/08 10:53:54;;;;;;;1.52;1.23;;;;;;;9.92;100.00;99336.69;5094362;28;20424;-66
2023/01/08 10:56:23;;;;;;;2.28;1.63;;;;;;;10.14;100.00;99332.16;5094347;28;20032;-65
2023/01/08 10:58:49;;;;;;;1.48;1.38;;;;;;;10.53;100.00;99324.50;5094095;28;20058;-66
2023/01/08 11:01:28;;;;;;;2.70;1.45;;;;;;;11.18;100.00;99324.22;5094079;28;20047;-68
2023/01/08 11:04:02;;;;;;;2.13;1.45;;;;;;;11.57;100.00;99321.66;5094435;28;20032;-65
2023/01/08 11:06:33;;;;;;;3.17;1.77;;;;;;;11.90;96.39;99310.25;5094103;28;20043;-66
2023/01/08 11:09:00;;;;;;;1.67;1.20;;;;;;;12.16;95.86;99302.25;5093942;28;20399;-64
2023/01/08 11:11:36;;;;;;;2.58;1.30;;;;;;;12.67;93.25;99298.06;5094138;28;20024;-65
2023/01/08 11:14:15;;;;;;;1.83;1.10;;;;;;;13.20;88.57;99285.34;5094046;28;20039;-66
2023/01/08 11:16:41;;;;;;;2.72;1.35;;;;;;;13.15;85.19;99286.97;5093933;28;20392;-54
2023/01/08 11:19:39;;;;;;;4.38;2.00;;;;;;;13.45;85.59;99277.41;5093888;28;20044;-53
2023/01/08 11:22:17;;;;;;;4.03;1.75;;;;;;;13.17;82.48;99275.06;5059387;28;20060;-53
2023/01/08 11:24:43;;;;;;;2.63;1.50;;;;;;;13.26;84.73;99271.13;5093892;28;20028;-57
2023/01/08 11:27:30;;;;;;;5.05;1.42;;;;;;;13.22;83.21;99269.06;5093494;28;20469;-55
2023/01/08 11:30:09;;;;;;;2.50;1.17;;;;;;;12.99;86.13;99273.06;5093847;28;20040;-51
2023/01/08 11:32:41;;;;;;;4.43;2.05;;;;;;;12.93;84.62;99273.09;5093638;28;20089;-66
2023/01/08 11:35:12;;;;;;;1.52;1.00;;;;;;;12.92;85.79;99269.63;5094080;28;20118;-64
2023/01/08 11:37:40;;;;;;;2.03;1.10;;;;;;;13.02;84.03;99259.28;5093253;28;20389;-64
2023/01/08 11:40:38;;;;;;;3.45;1.30;;;;;;;12.99;83.80;99261.56;5093643;28;20392;-65
2023/01/08 11:43:27;;;;;;;2.42;1.42;;;;;;;12.64;84.05;99256.53;5093017;28;20059;-64
2023/01/08 11:46:06;;;;;;;4.82;1.27;;;;;;;12.80;85.47;99243.75;5093469;28;20036;-65
2023/01/08 11:48:50;;;;;;;3.28;1.63;;;;;;;12.63;85.37;99236.19;5093205;28;20427;-64
2023/01/08 11:51:49;;;;;;;1.45;1.00;;;;;;;12.32;84.07;99222.72;5093415;28;20028;-63
2023/01/08 11:54:56;;;;;;;1.35;1.00;;;;;;;12.27;86.55;99215.38;5091987;28;20648;-62
2023/01/08 11:57:46;;;;;;;0.75;0.55;;;;;;;12.09;88.37;99224.00;5092768;28;20036;-63
2023/01/08 12:00:21;;;;;;;2.20;1.00;;;;;;;11.99;89.10;99226.28;5093029;28;20043;-63
2023/01/08 12:02:54;;;;;;;2.28;1.95;;;;;;;11.99;88.39;99218.25;5092982;28;20032;-63
2023/01/08 12:05:45;;;;;;;1.48;0.93;;;;;;;12.04;89.73;99215.81;5093016;28;20042;-63
2023/01/08 12:08:32;;;;;;;1.25;0.82;;;;;;;11.93;90.12;99219.09;5092708;28;20036;-63
2023/01/08 12:11:13;;;;;;;3.50;1.45;;;;;;;11.95;91.20;99215.22;5093154;28;20058;-62
2023/01/08 12:13:57;;;;;;;2.85;1.30;;;;;;;11.93;92.07;99216.41;5092706;28;20036;-64
2023/01/08 12:16:55;;;;;;;2.47;1.17;;;;;;;11.78;91.91;99215.78;5092775;28;20044;-62
2023/01/08 12:19:42;;;;;;;4.93;2.15;;;;;;;11.63;92.87;99211.50;5058253;28;20055;-63
2023/01/08 12:22:10;;;;;;;2.03;0.98;;;;;;;11.50;90.39;99216.00;5092543;28;20032;-62
2023/01/08 12:25:00;;;;;;;4.13;2.00;;;;;;;11.35;93.38;99211.69;5092539;28;20035;-63
2023/01/08 12:27:51;;;;;;;2.05;1.13;;;;;;;11.22;94.38;99213.50;5092115;28;20039;-63
2023/01/08 12:30:36;;;;;;;1.90;1.17;;;;;;;11.22;93.25;99211.66;5091951;28;20032;-52
2023/01/08 12:33:09;;;;;;;1.42;1.00;;;;;;;11.16;92.30;99212.47;5092371;28;20036;-63
2023/01/08 12:35:39;;;;;;;1.52;1.08;;;;;;;11.17;93.04;99210.63;5090180;28;20036;-62
2023/01/08 12:38:18;;;;;;;4.68;1.80;;;;;;;11.19;93.17;99208.56;5090086;28;20112;-63
2023/01/08 12:41:08;;;;;;;3.05;1.00;;;;;;;11.17;92.59;99189.31;5092138;28;20085;-63
2023/01/08 12:43:58;;;;;;;1.77;0.80;;;;;;;11.17;91.35;99191.97;5092058;28;20074;-64
2023/01/08 12:46:26;;;;;;;1.30;0.75;;;;;;;11.11;91.06;99188.25;5092030;28;20611;-65
2023/01/08 12:48:54;;;;;;;2.45;1.30;;;;;;;11.19;91.17;99181.91;5080060;28;20044;-64
2023/01/08 12:51:40;;;;;;;1.95;0.80;;;;;;;11.26;91.22;99190.72;5071792;28;20032;-64
2023/01/08 12:54:27;;;;;;;1.05;0.60;;;;;;;11.31;89.68;99181.09;5072208;28;20370;-65
2023/01/08 12:57:13;;;;;;;2.17;0.95;;;;;;;11.36;89.44;99175.16;5071679;28;20496;-64
2023/01/08 12:59:47;;;;;;;0.55;0.55;;;;;;;11.31;88.29;99173.09;5071678;28;20043;-64
2023/01/08 13:02:50;;;;;;;2.05;1.25;;;;;;;11.36;89.32;99165.31;5067216;28;20044;-63
2023/01/08 13:05:18;;;;;;;0.55;0.55;;;;;;;11.39;88.93;99159.56;5070797;28;20062;-65
2023/01/08 13:07:46;;;;;;;1.05;0.57;;;;;;;11.30;89.08;99155.47;5070557;28;20493;-65
2023/01/08 13:10:38;;;;;;;;;;;;;;;11.34;89.06;99169.19;5071424;28;20037;-64
2023/01/08 13:13:19;;;;;;;1.00;0.82;;;;;;;11.33;91.49;99167.56;5062106;28;19919;-63
2023/01/08 13:15:44;;;;;;;1.23;0.70;;;;;;;11.26;90.10;99169.41;5071203;28;20042;-67
2023/01/08 13:18:20;;;;;;;1.10;0.40;;;;;;;11.23;90.83;99154.66;5069993;28;20402;-64
2023/01/08 13:20:56;;;;;;;1.02;0.70;;;;;;;11.25;90.30;99157.13;5070931;28;20086;-63
2023/01/08 13:23:27;;;;;;;1.52;0.80;;;;;;;11.30;91.22;99139.47;5070925;28;20028;-56
2023/01/08 13:25:55;;;;;;;0.80;0.45;;;;;;;11.30;90.95;99134.16;5070998;28;20043;-56
2023/01/08 13:28:24;;;;;;;2.35;1.13;;;;;;;11.39;89.38;99124.91;5070260;28;20032;-51
2023/01/08 13:30:50;;;;;;;1.60;0.82;;;;;;;11.44;88.21;99128.81;5071086;28;20052;-63
2023/01/08 13:33:38;;;;;;;1.02;0.70;;;;;;;11.39;88.47;99134.75;5070499;28;20040;-61
2023/01/08 13:36:14;;;;;;;1.33;0.77;;;;;;;11.45;87.67;99135.78;5070874;28;20044;-63
2023/01/08 13:38:40;;;;;;;1.45;0.60;;;;;;;11.45;87.90;99133.13;5070275;28;20082;-64
2023/01/08 13:41:24;;;;;;;1.83;0.70;;;;;;;11.37;87.91;99140.31;5070596;28;20032;-64
2023/01/08 13:43:58;;;;;;;2.03;1.40;;;;;;;11.36;90.03;99136.00;5073477;28;20093;-64
2023/01/08 13:46:24;;;;;;;0.68;0.50;;;;;;;11.35;90.16;99130.88;5074663;28;20512;-64
2023/01/08 13:49:02;;;;;;;0.93;0.50;;;;;;;11.30;88.53;99138.66;5074086;28;20033;-64
2023/01/08 13:51:30;;;;;;;;;;;;;;;11.28;88.00;99132.69;5075269;28;20051;-62
2023/01/08 13:54:04;;;;;;;0.47;0.43;;;;;;;11.23;88.51;99135.19;5074494;28;19912;-65
2023/01/08 13:56:30;;;;;;;1.13;0.60;;;;;;;11.18;88.11;99133.13;5074889;28;20036;-65
2023/01/08 13:58:56;;;;;;;0.60;0.40;;;;;;;11.21;88.08;99124.69;5074144;28;20102;-66
2023/01/08 14:01:22;;;;;;;1.30;0.50;;;;;;;11.12;88.06;99129.41;5074355;28;20037;-65
2023/01/08 14:03:47;;;;;;;0.82;0.40;;;;;;;11.11;87.86;99124.28;5074539;28;20086;-64
2023/01/08 14:06:23;;;;;;;0.43;0.43;;;;;;;11.11;87.63;99114.44;5074489;28;20044;-65
2023/01/08 14:08:52;;;;;;;0.68;0.52;;;;;;;11.14;88.12;99106.03;5074017;28;20405;-65
2023/01/08 14:11:19;;;;;;;1.95;0.75;;;;;;;11.16;88.64;99105.03;5074375;28;20036;-64
2023/01/08 14:13:45;;;;;;;1.55;0.70;;;;;;;11.09;88.41;99099.69;5074203;28;20545;-65
2023/01/08 14:16:13;;;;;;;1.02;0.70;;;;;;;10.99;88.10;99094.75;5074387;28;20473;-64
2023/01/08 14:18:43;;;;;;;;;;;;;;;11.02;88.58;99097.03;5072594;28;20032;-65
2023/01/08 14:21:09;;;;;;;0.30;0.30;;;;;;;10.96;88.28;99083.72;5074097;28;19917;-65
2023/01/08 14:23:38;;;;;;;1.08;0.50;;;;;;;11.00;89.41;99091.06;5074291;28;20044;-64
2023/01/08 14:26:07;;;;;;;0.77;0.43;;;;;;;11.01;90.08;99092.69;5074168;28;20509;-65
2023/01/08 14:28:33;;;;;;;0.77;0.50;;;;;;;10.97;89.86;99086.16;5073734;28;20040;-61
2023/01/08 14:30:59;;;;;;;0.50;0.40;;;;;;;10.96;89.82;99084.53;5074007;28;20040;-58
2023/01/08 14:33:35;;;;;;;0.50;0.40;;;;;;;10.95;90.02;99082.03;5074088;28;20048;-57
2023/01/08 14:36:05;;;;;;;2.20;0.68;;;;;;;10.86;90.16;99081.44;5073594;28;20203;-61
2023/01/08 14:38:30;;;;;;;2.85;0.70;;;;;;;10.86;91.06;99084.09;5073229;28;20090;-65
2023/01/08 14:41:00;;;;;;;0.40;0.40;;;;;;;10.93;91.15;99082.25;5073808;28;20439;-65
2023/01/08 14:43:26;;;;;;;4.53;1.23;;;;;;;10.88;91.89;99082.84;5073784;28;20062;-65
2023/01/08 14:45:53;;;;;;;0.60;0.60;;;;;;;10.83;90.94;99079.19;5073833;28;20413;-65
2023/01/08 14:48:39;;;;;;;3.47;1.20;;;;;;;10.81;90.88;99068.72;5073805;28;20400;-65
2023/01/08 14:51:09;;;;;;;4.50;0.90;;;;;;;10.85;90.57;99077.94;5074111;28;20051;-64
2023/01/08 14:53:37;;;;;;;2.17;0.77;;;;;;;10.85;90.55;99069.13;5073624;28;20074;-65
2023/01/08 14:56:05;;;;;;;1.55;0.68;;;;;;;10.83;91.20;99064.03;5073891;28;20032;-65
2023/01/08 14:58:39;;;;;;;2.75;1.50;;;;;;;10.82;90.87;99062.38;5073828;28;20036;-65
2023/01/08 15:01:14;;;;;;;2.70;1.05;;;;;;;10.79;91.87;99057.44;5073928;28;20036;-65
2023/01/08 15:03:41;;;;;;;0.90;0.80;;;;;;;10.78;91.46;99061.13;5074027;28;20044;-65
2023/01/08 15:06:10;;;;;;;1.33;0.85;;;;;;;10.82;92.74;99058.88;5073788;28;20127;-65
2023/01/08 15:08:38;;;;;;;2.28;0.93;;;;;;;10.79;92.99;99056.63;5072295;28;20486;-65
2023/01/08 15:11:04;;;;;;;;;;;;;;;10.76;91.31;99049.06;5074165;28;20028;-65
2023/01/08 15:13:37;;;;;;;1.08;0.63;;;;;;;10.70;91.15;99049.88;5073885;28;19918;-65
2023/01/08 15:16:17;;;;;;;2.42;0.95;;;;;;;10.70;92.07;99056.00;5073581;28;20079;-65
2023/01/08 15:18:47;;;;;;;2.78;0.52;;;;;;;10.62;92.33;99053.50;5073336;28;20032;-64
2023/01/08 15:21:21;;;;;;;0.40;0.40;;;;;;;10.59;92.29;99046.75;5074867;28;20044;-65
2023/01/08 15:23:55;;;;;;;2.10;0.90;;;;;;;10.53;92.55;99042.25;5074082;28;20040;-65
2023/01/08 15:26:21;;;;;;;2.78;1.38;;;;;;;10.51;92.92;99038.97;5073644;28;20559;-65
2023/01/08 15:28:53;;;;;;;2.63;1.48;;;;;;;10.52;92.57;99037.94;5073371;28;20036;-65
2023/01/08 15:31:44;;;;;;;1.77;1.25;;;;;;;10.47;92.67;99037.72;5074380;28;20428;-66
2023/01/08 15:34:09;;;;;;;3.05;1.30;;;;;;;10.46;92.96;99029.94;5073801;28;20047;-64
2023/01/08 15:36:35;;;;;;;3.05;1.40;;;;;;;10.43;93.16;99023.19;5073327;28;20040;-64
2023/01/08 15:39:01;;;;;;;1.70;1.23;;;;;;;10.43;93.64;99023.19;5072972;28;20055;-64
2023/01/08 15:44:19;;;;;;;1.25;1.00;;;;;;;10.39;93.35;99013.97;5073226;28;20040;-64
2023/01/08 15:46:44;;;;;;;0.90;0.80;;;;;;;10.39;93.85;99008.63;5072949;28;20447;-64
2023/01/08 15:49:09;;;;;;;1.70;1.15;;;;;;;10.37;94.08;99000.03;5072798;28;20051;-65
2023/01/08 15:51:39;;;;;;;1.33;0.73;;;;;;;10.38;93.93;98992.88;5073106;28;20378;-65
2023/01/08 15:54:04;;;;;;;1.80;1.10;;;;;;;10.38;93.88;98991.03;5072913;28;20115;-66
2023/01/08 15:56:30;;;;;;;2.95;2.05;;;;;;;10.36;95.01;98987.72;5072782;28;20123;-66
2023/01/08 15:58:55;;;;;;;2.78;1.10;;;;;;;10.35;94.04;98996.75;5072538;28;20068;-66
2023/01/08 16:01:21;;;;;;;4.47;1.27;;;;;;;10.33;94.63;98985.47;5072627;28;20123;-66
2023/01/08 16:03:47;;;;;;;2.63;1.30;;;;;;;10.29;96.16;98995.69;5072801;28;20037;-65
2023/01/08 16:06:12;;;;;;;1.10;1.00;;;;;;;10.29;95.16;98997.53;5071955;28;20044;-66
2023/01/08 16:08:38;;;;;;;1.92;1.33;;;;;;;10.26;97.09;99003.28;5072219;28;20045;-66
2023/01/08 16:11:03;;;;;;;1.80;1.58;;;;;;;10.26;94.29;99004.09;5072499;28;20110;-66
2023/01/08 16:13:28;;;;;;;1.67;1.50;;;;;;;10.26;94.82;98996.13;5072687;28;20043;-67
2023/01/08 16:15:54;;;;;;;5.10;2.22;;;;;;;10.27;94.70;98992.44;5072592;28;20469;-67
2023/01/08 16:18:20;;;;;;;4.57;2.30;;;;;;;10.25;95.14;98991.00;5071020;28;20089;-65
2023/01/08 16:20:45;;;;;;;3.17;1.98;;;;;;;10.26;96.39;98990.78;5072354;28;20097;-65
2023/01/08 16:23:11;;;;;;;3.50;1.95;;;;;;;10.26;97.11;98985.47;5072707;28;20111;-68
2023/01/08 16:25:39;;;;;;;3.17;1.90;;;;;;;10.24;96.35;98976.88;5072541;28;20044;-69
2023/01/08 16:28:04;;;;;;;2.03;1.20;;;;;;;10.20;97.15;98966.78;5072263;28;20139;-69
2023/01/08 16:30:30;;;;;;;3.60;1.63;;;;;;;10.19;96.77;98962.50;5072370;28;20044;-69
2023/01/08 16:32:55;;;;;;;2.80;1.30;;;;;;;10.13;96.27;98955.31;5072464;28;20037;-68
2023/01/08 16:35:21;;;;;;;2.80;1.30;;;;;;;10.15;97.33;98955.94;5072310;28;20075;-69
2023/01/08 16:37:47;;;;;;;2.40;1.13;;;;;;;10.03;97.56;98964.50;5071915;28;20042;-69
2023/01/08 16:40:13;;;;;;;7.55;2.85;;;;;;;10.00;95.47;98951.59;5072231;28;20102;-68
2023/01/08 16:42:38;;;;;;;4.15;1.75;;;;;;;10.02;95.66;98946.06;5069711;28;20178;-68
2023/01/08 16:45:05;;;;;;;3.63;1.80;;;;;;;10.01;96.14;98947.91;5071947;28;20119;-69
2023/01/08 16:47:30;;;;;;;1.50;1.23;;;;;;;9.98;95.86;98940.34;5071714;28;20539;-69
2023/01/08 16:49:55;;;;;;;2.05;1.23;;;;;;;9.98;96.42;98932.38;5072069;28;20044;-69
2023/01/08 16:52:21;;;;;;;2.22;1.25;;;;;;;9.96;95.39;98918.44;5072001;28;20064;-69
2023/01/08 16:54:47;;;;;;;2.13;1.25;;;;;;;9.95;95.23;98915.97;5072291;28;20064;-68
2023/01/08 16:57:13;;;;;;;3.10;1.55;;;;;;;9.94;95.51;98915.16;5071432;28;20043;-69
2023/01/08 16:59:39;;;;;;;3.28;1.33;;;;;;;9.87;94.77;98909.00;5071754;28;20401;-69
2023/01/08 17:02:04;;;;;;;1.27;1.17;;;;;;;9.87;94.50;98895.72;5071848;28;20078;-69
2023/01/08 17:04:29;;;;;;;2.85;1.40;;;;;;;9.85;93.40;98895.09;5072004;28;20059;-70
2023/01/08 17:06:56;;;;;;;1.40;1.27;;;;;;;9.89;92.57;98890.19;5071681;28;20044;-70
2023/01/08 17:09:22;;;;;;;2.03;1.40;;;;;;;9.88;92.97;98889.38;5071695;28;20036;-69